sensor_id;sensor_type;location;lat;lon;timestamp;pressure;altitude;pressure_sealevel;temperature;humidity
75585;BME280;64162;53.508;10.476;2023-11-21T00:00:01;100590.41;;;9.73;80.40
75585;BME280;64162;53.508;10.476;2023-11-21T00:02:38;100593.25;;;9.36;80.61
75585;BME280;64162;53.508;10.476;2023-11-21T00:05:10;100602.25;;;9.83;79.47
75585;BME280;64162;53.508;10.476;2023-11-21T00:07:37;100604.50;;;9.53;80.15
75585;BME280;64162;53.508;10.476;2023-11-21T00:10:05;100597.88;;;9.50;79.89
75585;BME280;64162;53.508;10.476;2023-11-21T00:12:32;100608.75;;;9.36;80.00
75585;BME280;64162;53.508;10.476;2023-11-21T00:15:00;100612.28;;;9.61;79.71
75585;BME280;64162;53.508;10.476;2023-11-21T00:17:26;100614.34;;;9.75;79.49
75585;BME280;64162;53.508;10.476;2023-11-21T00:19:53;100611.91;;;9.47;79.38
75585;BME280;64162;53.508;10.476;2023-11-21T00:22:20;100614.03;;;9.52;79.35
75585;BME280;64162;53.508;10.476;2023-11-21T00:24:46;100613.75;;;9.29;79.98
75585;BME280;64162;53.508;10.476;2023-11-21T00:27:14;100620.91;;;9.18;79.19
75585;BME280;64162;53.508;10.476;2023-11-21T00:29:40;100624.97;;;9.20;79.12
75585;BME280;64162;53.508;10.476;2023-11-21T00:32:08;100619.00;;;9.20;79.08
75585;BME280;64162;53.508;10.476;2023-11-21T00:34:36;100634.59;;;9.36;78.93
75585;BME280;64162;53.508;10.476;2023-11-21T00:37:03;100643.81;;;8.77;80.51
75585;BME280;64162;53.508;10.476;2023-11-21T00:39:29;100637.91;;;9.02;79.46
75585;BME280;64162;53.508;10.476;2023-11-21T00:41:56;100649.38;;;9.00;79.46
75585;BME280;64162;53.508;10.476;2023-11-21T00:44:23;100645.81;;;9.44;78.81
75585;BME280;64162;53.508;10.476;2023-11-21T00:46:50;100655.91;;;9.12;79.31
75585;BME280;64162;53.508;10.476;2023-11-21T00:49:17;100646.81;;;8.90;79.96
75585;BME280;64162;53.508;10.476;2023-11-21T00:51:43;100650.44;;;8.97;80.16
75585;BME280;64162;53.508;10.476;2023-11-21T00:54:10;100634.41;;;9.29;79.14
75585;BME280;64162;53.508;10.476;2023-11-21T00:56:37;100641.59;;;9.18;78.96
75585;BME280;64162;53.508;10.476;2023-11-21T00:59:04;100649.03;;;9.21;78.75
75585;BME280;64162;53.508;10.476;2023-11-21T01:01:31;100673.63;;;8.89;79.01
75585;BME280;64162;53.508;10.476;2023-11-21T01:03:57;100670.88;;;8.73;78.54
75585;BME280;64162;53.508;10.476;2023-11-21T01:06:24;100675.88;;;8.57;78.40
75585;BME280;64162;53.508;10.476;2023-11-21T01:08:51;100673.91;;;8.86;77.48
75585;BME280;64162;53.508;10.476;2023-11-21T01:11:17;100689.13;;;8.89;77.74
75585;BME280;64162;53.508;10.476;2023-11-21T01:13:44;100697.66;;;8.72;78.54
75585;BME280;64162;53.508;10.476;2023-11-21T01:16:12;100701.50;;;8.41;78.99
75585;BME280;64162;53.508;10.476;2023-11-21T01:18:39;100708.09;;;8.53;78.61
75585;BME280;64162;53.508;10.476;2023-11-21T01:21:06;100706.47;;;8.52;77.96
75585;BME280;64162;53.508;10.476;2023-11-21T01:23:33;100711.34;;;8.55;77.73
75585;BME280;64162;53.508;10.476;2023-11-21T01:26:00;100716.66;;;8.53;78.68
75585;BME280;64162;53.508;10.476;2023-11-21T01:28:26;100710.25;;;8.75;77.88
75585;BME280;64162;53.508;10.476;2023-11-21T01:30:53;100705.97;;;8.66;77.60
75585;BME280;64162;53.508;10.476;2023-11-21T01:33:22;100719.56;;;8.86;77.09
75585;BME280;64162;53.508;10.476;2023-11-21T01:35:51;100729.09;;;8.85;77.11
75585;BME280;64162;53.508;10.476;2023-11-21T01:38:21;100712.56;;;8.78;77.05
75585;BME280;64162;53.508;10.476;2023-11-21T01:40:48;100711.16;;;8.39;77.74
75585;BME280;64162;53.508;10.476;2023-11-21T01:43:15;100709.78;;;8.44;77.29
75585;BME280;64162;53.508;10.476;2023-11-21T01:45:43;100718.91;;;8.29;77.00
75585;BME280;64162;53.508;10.476;2023-11-21T01:48:12;100722.59;;;8.81;76.27
75585;BME280;64162;53.508;10.476;2023-11-21T01:50:40;100713.44;;;8.69;75.89
75585;BME280;64162;53.508;10.476;2023-11-21T01:53:07;100709.88;;;8.70;76.07
75585;BME280;64162;53.508;10.476;2023-11-21T01:55:35;100730.41;;;8.44;76.80
75585;BME280;64162;53.508;10.476;2023-11-21T01:58:01;100730.53;;;8.70;76.61
75585;BME280;64162;53.508;10.476;2023-11-21T02:00:29;100734.19;;;8.50;76.02
75585;BME280;64162;53.508;10.476;2023-11-21T02:02:56;100733.44;;;8.40;76.74
75585;BME280;64162;53.508;10.476;2023-11-21T02:05:23;100743.06;;;8.65;76.59
75585;BME280;64162;53.508;10.476;2023-11-21T02:07:50;100743.28;;;8.54;76.11
75585;BME280;64162;53.508;10.476;2023-11-21T02:10:18;100735.38;;;8.55;76.13
75585;BME280;64162;53.508;10.476;2023-11-21T02:12:49;100746.03;;;8.43;76.31
75585;BME280;64162;53.508;10.476;2023-11-21T02:15:20;100744.59;;;8.58;76.30
75585;BME280;64162;53.508;10.476;2023-11-21T02:17:48;100768.88;;;8.65;76.79
75585;BME280;64162;53.508;10.476;2023-11-21T02:20:18;100763.41;;;8.41;76.81
75585;BME280;64162;53.508;10.476;2023-11-21T02:22:50;100752.91;;;8.52;76.88
75585;BME280;64162;53.508;10.476;2023-11-21T02:25:22;100780.06;;;8.56;76.31
75585;BME280;64162;53.508;10.476;2023-11-21T02:27:49;100763.09;;;8.53;76.76
75585;BME280;64162;53.508;10.476;2023-11-21T02:30:17;100777.22;;;8.59;76.50
75585;BME280;64162;53.508;10.476;2023-11-21T02:32:45;100765.06;;;8.69;77.01
75585;BME280;64162;53.508;10.476;2023-11-21T02:35:12;100784.78;;;8.24;77.16
75585;BME280;64162;53.508;10.476;2023-11-21T02:37:38;100771.22;;;8.86;76.24
75585;BME280;64162;53.508;10.476;2023-11-21T02:40:06;100787.41;;;8.51;76.63
75585;BME280;64162;53.508;10.476;2023-11-21T02:42:33;100787.09;;;8.64;76.68
75585;BME280;64162;53.508;10.476;2023-11-21T02:45:00;100780.69;;;8.21;77.42
75585;BME280;64162;53.508;10.476;2023-11-21T02:47:27;100792.47;;;8.43;76.68
75585;BME280;64162;53.508;10.476;2023-11-21T02:49:53;100786.94;;;8.38;76.91
75585;BME280;64162;53.508;10.476;2023-11-21T02:52:20;100785.03;;;8.67;76.20
75585;BME280;64162;53.508;10.476;2023-11-21T02:54:46;100793.59;;;8.31;77.23
75585;BME280;64162;53.508;10.476;2023-11-21T02:57:13;100805.09;;;8.46;76.38
75585;BME280;64162;53.508;10.476;2023-11-21T02:59:40;100800.78;;;8.37;76.52
75585;BME280;64162;53.508;10.476;2023-11-21T03:02:06;100802.06;;;8.60;76.26
75585;BME280;64162;53.508;10.476;2023-11-21T03:04:35;100807.56;;;8.28;76.09
75585;BME280;64162;53.508;10.476;2023-11-21T03:07:01;100797.16;;;8.30;76.93
75585;BME280;64162;53.508;10.476;2023-11-21T03:09:29;100816.06;;;8.57;76.05
75585;BME280;64162;53.508;10.476;2023-11-21T03:11:55;100815.69;;;8.43;76.30
75585;BME280;64162;53.508;10.476;2023-11-21T03:14:22;100800.97;;;8.63;76.09
75585;BME280;64162;53.508;10.476;2023-11-21T03:16:48;100810.31;;;8.17;77.11
75585;BME280;64162;53.508;10.476;2023-11-21T03:19:15;100816.94;;;8.39;76.53
75585;BME280;64162;53.508;10.476;2023-11-21T03:21:42;100816.66;;;8.42;76.16
75585;BME280;64162;53.508;10.476;2023-11-21T03:24:09;100796.97;;;8.22;76.80
75585;BME280;64162;53.508;10.476;2023-11-21T03:26:35;100820.50;;;8.18;76.64
75585;BME280;64162;53.508;10.476;2023-11-21T03:29:03;100817.19;;;8.36;76.48
75585;BME280;64162;53.508;10.476;2023-11-21T03:31:31;100821.66;;;8.53;75.59
75585;BME280;64162;53.508;10.476;2023-11-21T03:33:58;100812.41;;;8.50;75.27
75585;BME280;64162;53.508;10.476;2023-11-21T03:36:24;100829.78;;;8.58;75.60
75585;BME280;64162;53.508;10.476;2023-11-21T03:38:52;100828.63;;;8.70;74.62
75585;BME280;64162;53.508;10.476;2023-11-21T03:41:18;100825.38;;;8.68;75.09
75585;BME280;64162;53.508;10.476;2023-11-21T03:43:45;100834.13;;;8.57;75.39
75585;BME280;64162;53.508;10.476;2023-11-21T03:46:13;100840.84;;;9.05;73.78
75585;BME280;64162;53.508;10.476;2023-11-21T03:48:40;100848.09;;;8.92;74.34
75585;BME280;64162;53.508;10.476;2023-11-21T03:51:06;100851.31;;;9.03;74.01
75585;BME280;64162;53.508;10.476;2023-11-21T03:53:33;100865.38;;;8.54;75.38
75585;BME280;64162;53.508;10.476;2023-11-21T03:56:04;100874.53;;;8.76;75.09
75585;BME280;64162;53.508;10.476;2023-11-21T03:58:32;100873.78;;;8.56;75.46
75585;BME280;64162;53.508;10.476;2023-11-21T04:00:58;100874.81;;;9.10;73.82
75585;BME280;64162;53.508;10.476;2023-11-21T04:03:25;100880.78;;;8.83;74.48
75585;BME280;64162;53.508;10.476;2023-11-21T04:05:51;100889.28;;;8.56;75.30
75585;BME280;64162;53.508;10.476;2023-11-21T04:08:18;100875.00;;;8.62;75.09
75585;BME280;64162;53.508;10.476;2023-11-21T04:10:44;100885.03;;;8.65;75.63
75585;BME280;64162;53.508;10.476;2023-11-21T04:13:12;100878.72;;;8.50;75.00
75585;BME280;64162;53.508;10.476;2023-11-21T04:15:38;100879.97;;;8.83;74.07
75585;BME280;64162;53.508;10.476;2023-11-21T04:18:05;100889.94;;;8.58;74.95
75585;BME280;64162;53.508;10.476;2023-11-21T04:20:31;100902.59;;;8.52;74.69
75585;BME280;64162;53.508;10.476;2023-11-21T04:22:58;100908.06;;;8.30;75.21
75585;BME280;64162;53.508;10.476;2023-11-21T04:25:25;100909.81;;;8.48;74.52
75585;BME280;64162;53.508;10.476;2023-11-21T04:27:51;100916.84;;;9.02;73.18
75585;BME280;64162;53.508;10.476;2023-11-21T04:30:18;100916.72;;;8.57;74.30
75585;BME280;64162;53.508;10.476;2023-11-21T04:32:44;100925.00;;;8.51;74.93
75585;BME280;64162;53.508;10.476;2023-11-21T04:35:12;100927.97;;;8.56;74.58
75585;BME280;64162;53.508;10.476;2023-11-21T04:37:38;100931.75;;;8.72;74.31
75585;BME280;64162;53.508;10.476;2023-11-21T04:40:05;100924.63;;;8.37;75.06
75585;BME280;64162;53.508;10.476;2023-11-21T04:42:34;100939.28;;;8.36;75.25
75585;BME280;64162;53.508;10.476;2023-11-21T04:45:03;100946.19;;;8.45;74.13
75585;BME280;64162;53.508;10.476;2023-11-21T04:47:33;100949.88;;;8.52;74.58
75585;BME280;64162;53.508;10.476;2023-11-21T04:50:00;100946.75;;;8.58;74.29
75585;BME280;64162;53.508;10.476;2023-11-21T04:52:26;100949.72;;;8.54;74.26
75585;BME280;64162;53.508;10.476;2023-11-21T04:54:53;100956.38;;;8.56;74.36
75585;BME280;64162;53.508;10.476;2023-11-21T04:57:21;100947.41;;;8.51;73.99
75585;BME280;64162;53.508;10.476;2023-11-21T04:59:50;100952.06;;;8.38;74.52
75585;BME280;64162;53.508;10.476;2023-11-21T05:02:17;100953.94;;;8.45;74.20
75585;BME280;64162;53.508;10.476;2023-11-21T05:04:49;100956.13;;;8.59;74.34
75585;BME280;64162;53.508;10.476;2023-11-21T05:07:15;100961.56;;;8.37;74.50
75585;BME280;64162;53.508;10.476;2023-11-21T05:09:43;100949.34;;;8.30;74.46
75585;BME280;64162;53.508;10.476;2023-11-21T05:12:12;100964.25;;;8.45;74.41
75585;BME280;64162;53.508;10.476;2023-11-21T05:14:40;100967.41;;;8.30;74.88
75585;BME280;64162;53.508;10.476;2023-11-21T05:17:08;100968.34;;;8.48;74.56
75585;BME280;64162;53.508;10.476;2023-11-21T05:19:34;100983.94;;;8.08;74.89
75585;BME280;64162;53.508;10.476;2023-11-21T05:22:02;100990.63;;;8.30;74.56
75585;BME280;64162;53.508;10.476;2023-11-21T05:24:28;100987.22;;;8.39;74.57
75585;BME280;64162;53.508;10.476;2023-11-21T05:26:55;100991.16;;;8.52;74.24
75585;BME280;64162;53.508;10.476;2023-11-21T05:29:22;100991.28;;;8.41;74.61
75585;BME280;64162;53.508;10.476;2023-11-21T05:31:49;100993.06;;;8.41;73.84
75585;BME280;64162;53.508;10.476;2023-11-21T05:34:15;100986.13;;;8.51;74.02
75585;BME280;64162;53.508;10.476;2023-11-21T05:36:44;100978.91;;;8.74;73.71
75585;BME280;64162;53.508;10.476;2023-11-21T05:39:12;100977.53;;;8.79;73.56
75585;BME280;64162;53.508;10.476;2023-11-21T05:41:38;100996.59;;;8.40;74.74
75585;BME280;64162;53.508;10.476;2023-11-21T05:44:05;100998.38;;;8.39;74.73
75585;BME280;64162;53.508;10.476;2023-11-21T05:46:31;101008.41;;;8.52;74.31
75585;BME280;64162;53.508;10.476;2023-11-21T05:48:58;101011.09;;;8.79;73.15
75585;BME280;64162;53.508;10.476;2023-11-21T05:51:24;101031.88;;;8.87;73.29
75585;BME280;64162;53.508;10.476;2023-11-21T05:53:51;101029.59;;;8.55;74.10
75585;BME280;64162;53.508;10.476;2023-11-21T05:56:18;101035.69;;;8.35;75.16
75585;BME280;64162;53.508;10.476;2023-11-21T05:58:44;101029.19;;;8.50;74.50
75585;BME280;64162;53.508;10.476;2023-11-21T06:01:11;101042.16;;;8.10;74.98
75585;BME280;64162;53.508;10.476;2023-11-21T06:03:39;101023.22;;;8.59;73.86
75585;BME280;64162;53.508;10.476;2023-11-21T06:06:05;101037.31;;;8.55;73.95
75585;BME280;64162;53.508;10.476;2023-11-21T06:08:33;101022.66;;;8.56;74.14
75585;BME280;64162;53.508;10.476;2023-11-21T06:10:59;101029.19;;;8.60;73.77
75585;BME280;64162;53.508;10.476;2023-11-21T06:13:26;101041.63;;;8.26;74.78
75585;BME280;64162;53.508;10.476;2023-11-21T06:15:53;101038.69;;;8.31;74.19
75585;BME280;64162;53.508;10.476;2023-11-21T06:18:20;101050.78;;;8.78;72.83
75585;BME280;64162;53.508;10.476;2023-11-21T06:20:46;101062.34;;;8.74;72.76
75585;BME280;64162;53.508;10.476;2023-11-21T06:23:13;101072.50;;;8.76;73.37
75585;BME280;64162;53.508;10.476;2023-11-21T06:25:40;101064.56;;;9.16;71.79
75585;BME280;64162;53.508;10.476;2023-11-21T06:28:07;101085.56;;;8.84;73.00
75585;BME280;64162;53.508;10.476;2023-11-21T06:30:33;101089.09;;;9.02;72.51
75585;BME280;64162;53.508;10.476;2023-11-21T06:33:00;101086.53;;;8.83;72.94
75585;BME280;64162;53.508;10.476;2023-11-21T06:35:27;101080.25;;;8.47;74.14
75585;BME280;64162;53.508;10.476;2023-11-21T06:37:56;101094.09;;;8.55;73.80
75585;BME280;64162;53.508;10.476;2023-11-21T06:40:23;101095.75;;;8.66;73.10
75585;BME280;64162;53.508;10.476;2023-11-21T06:42:51;101089.91;;;8.54;73.36
75585;BME280;64162;53.508;10.476;2023-11-21T06:45:18;101103.66;;;8.55;73.51
75585;BME280;64162;53.508;10.476;2023-11-21T06:47:46;101102.97;;;8.72;72.93
75585;BME280;64162;53.508;10.476;2023-11-21T06:50:13;101110.81;;;8.80;73.05
75585;BME280;64162;53.508;10.476;2023-11-21T06:52:40;101105.00;;;8.88;72.52
75585;BME280;64162;53.508;10.476;2023-11-21T06:55:07;101117.31;;;8.46;73.69
75585;BME280;64162;53.508;10.476;2023-11-21T06:57:34;101105.53;;;8.53;73.66
75585;BME280;64162;53.508;10.476;2023-11-21T07:00:02;101109.47;;;8.86;72.43
75585;BME280;64162;53.508;10.476;2023-11-21T07:02:29;101114.91;;;8.64;73.01
75585;BME280;64162;53.508;10.476;2023-11-21T07:04:55;101128.78;;;8.91;72.34
75585;BME280;64162;53.508;10.476;2023-11-21T07:07:22;101132.19;;;8.73;72.61
75585;BME280;64162;53.508;10.476;2023-11-21T07:09:48;101140.31;;;8.49;73.40
75585;BME280;64162;53.508;10.476;2023-11-21T07:12:15;101149.69;;;8.50;73.43
75585;BME280;64162;53.508;10.476;2023-11-21T07:14:41;101148.06;;;8.68;72.82
75585;BME280;64162;53.508;10.476;2023-11-21T07:17:11;101132.59;;;8.97;72.00
75585;BME280;64162;53.508;10.476;2023-11-21T07:19:38;101145.22;;;8.90;72.36
75585;BME280;64162;53.508;10.476;2023-11-21T07:22:05;101147.41;;;8.95;72.80
75585;BME280;64162;53.508;10.476;2023-11-21T07:24:33;101151.59;;;8.86;72.34
75585;BME280;64162;53.508;10.476;2023-11-21T07:27:00;101161.00;;;9.35;71.19
75585;BME280;64162;53.508;10.476;2023-11-21T07:29:27;101169.41;;;9.28;71.34
75585;BME280;64162;53.508;10.476;2023-11-21T07:31:55;101184.38;;;8.95;71.99
75585;BME280;64162;53.508;10.476;2023-11-21T07:34:22;101174.59;;;9.18;71.72
75585;BME280;64162;53.508;10.476;2023-11-21T07:36:49;101186.28;;;9.13;71.92
75585;BME280;64162;53.508;10.476;2023-11-21T07:39:15;101189.28;;;8.98;71.90
75585;BME280;64162;53.508;10.476;2023-11-21T07:41:42;101188.75;;;9.04;72.09
75585;BME280;64162;53.508;10.476;2023-11-21T07:44:16;101189.09;;;8.71;73.25
75585;BME280;64162;53.508;10.476;2023-11-21T07:46:43;101195.81;;;9.12;71.46
75585;BME280;64162;53.508;10.476;2023-11-21T07:49:10;101194.97;;;9.31;71.44
75585;BME280;64162;53.508;10.476;2023-11-21T07:51:37;101209.50;;;8.74;72.81
75585;BME280;64162;53.508;10.476;2023-11-21T07:54:03;101206.09;;;8.74;72.57
75585;BME280;64162;53.508;10.476;2023-11-21T07:56:30;101205.81;;;8.67;72.87
75585;BME280;64162;53.508;10.476;2023-11-21T07:58:56;101221.34;;;9.05;71.87
75585;BME280;64162;53.508;10.476;2023-11-21T08:01:23;101213.16;;;8.81;72.90
75585;BME280;64162;53.508;10.476;2023-11-21T08:03:50;101221.09;;;9.28;72.60
75585;BME280;64162;53.508;10.476;2023-11-21T08:06:18;101214.81;;;8.82;72.95
75585;BME280;64162;53.508;10.476;2023-11-21T08:08:45;101219.59;;;9.44;73.73
75585;BME280;64162;53.508;10.476;2023-11-21T08:11:11;101217.56;;;9.10;71.83
75585;BME280;64162;53.508;10.476;2023-11-21T08:13:38;101232.94;;;9.30;71.99
75585;BME280;64162;53.508;10.476;2023-11-21T08:16:05;101240.94;;;9.27;70.91
75585;BME280;64162;53.508;10.476;2023-11-21T08:18:33;101225.19;;;9.40;71.14
75585;BME280;64162;53.508;10.476;2023-11-21T08:21:00;101234.97;;;9.08;71.98
75585;BME280;64162;53.508;10.476;2023-11-21T08:23:27;101244.13;;;8.72;72.57
75585;BME280;64162;53.508;10.476;2023-11-21T08:25:55;101230.63;;;9.18;72.08
75585;BME280;64162;53.508;10.476;2023-11-21T08:28:21;101229.53;;;9.30;70.12
75585;BME280;64162;53.508;10.476;2023-11-21T08:30:49;101236.88;;;9.44;69.54
75585;BME280;64162;53.508;10.476;2023-11-21T08:33:16;101251.66;;;8.94;70.63
75585;BME280;64162;53.508;10.476;2023-11-21T08:35:42;101240.41;;;9.14;70.12
75585;BME280;64162;53.508;10.476;2023-11-21T08:38:09;101261.63;;;9.27;69.92
75585;BME280;64162;53.508;10.476;2023-11-21T08:40:37;101271.34;;;8.85;70.56
75585;BME280;64162;53.508;10.476;2023-11-21T08:43:03;101266.66;;;9.29;70.20
75585;BME280;64162;53.508;10.476;2023-11-21T08:45:33;101261.50;;;9.19;70.31
75585;BME280;64162;53.508;10.476;2023-11-21T08:48:01;101264.19;;;9.08;70.03
75585;BME280;64162;53.508;10.476;2023-11-21T08:50:28;101269.13;;;9.50;70.09
75585;BME280;64162;53.508;10.476;2023-11-21T08:52:55;101284.63;;;9.59;69.85
75585;BME280;64162;53.508;10.476;2023-11-21T08:55:22;101286.66;;;9.27;69.18
75585;BME280;64162;53.508;10.476;2023-11-21T08:57:48;101298.19;;;9.03;70.07
75585;BME280;64162;53.508;10.476;2023-11-21T09:00:16;101293.72;;;9.15;70.07
75585;BME280;64162;53.508;10.476;2023-11-21T09:02:44;101294.34;;;8.88;71.98
75585;BME280;64162;53.508;10.476;2023-11-21T09:05:11;101294.72;;;8.74;70.77
75585;BME280;64162;53.508;10.476;2023-11-21T09:07:41;101300.56;;;9.45;69.72
75585;BME280;64162;53.508;10.476;2023-11-21T09:10:08;101293.84;;;9.14;68.87
75585;BME280;64162;53.508;10.476;2023-11-21T09:12:36;101305.59;;;8.87;71.23
75585;BME280;64162;53.508;10.476;2023-11-21T09:15:05;101306.78;;;9.42;69.24
75585;BME280;64162;53.508;10.476;2023-11-21T09:17:33;101317.44;;;9.59;69.11
75585;BME280;64162;53.508;10.476;2023-11-21T09:20:00;101325.94;;;9.21;70.32
75585;BME280;64162;53.508;10.476;2023-11-21T09:22:27;101323.19;;;9.03;69.68
75585;BME280;64162;53.508;10.476;2023-11-21T09:24:57;101339.75;;;9.40;69.75
75585;BME280;64162;53.508;10.476;2023-11-21T09:27:24;101340.38;;;9.23;69.28
75585;BME280;64162;53.508;10.476;2023-11-21T09:29:52;101345.47;;;9.63;69.20
75585;BME280;64162;53.508;10.476;2023-11-21T09:32:20;101346.50;;;9.22;69.84
75585;BME280;64162;53.508;10.476;2023-11-21T09:34:50;101348.28;;;8.91;69.62
75585;BME280;64162;53.508;10.476;2023-11-21T09:37:17;101342.34;;;9.50;68.88
75585;BME280;64162;53.508;10.476;2023-11-21T09:39:44;101349.91;;;10.38;66.68
75585;BME280;64162;53.508;10.476;2023-11-21T09:42:17;101368.81;;;9.33;68.45
75585;BME280;64162;53.508;10.476;2023-11-21T09:45:00;101376.56;;;8.83;68.99
75585;BME280;64162;53.508;10.476;2023-11-21T09:47:32;101374.28;;;9.49;67.60
75585;BME280;64162;53.508;10.476;2023-11-21T09:50:02;101386.69;;;9.55;68.72
75585;BME280;64162;53.508;10.476;2023-11-21T09:52:30;101369.13;;;9.68;67.74
75585;BME280;64162;53.508;10.476;2023-11-21T09:54:59;101380.81;;;9.43;68.48
75585;BME280;64162;53.508;10.476;2023-11-21T09:57:27;101364.16;;;9.27;69.02
75585;BME280;64162;53.508;10.476;2023-11-21T09:59:54;101380.50;;;9.37;69.21
75585;BME280;64162;53.508;10.476;2023-11-21T10:02:27;101376.19;;;9.47;70.15
75585;BME280;64162;53.508;10.476;2023-11-21T10:04:56;101377.13;;;9.36;68.02
75585;BME280;64162;53.508;10.476;2023-11-21T10:07:23;101394.34;;;9.26;67.21
75585;BME280;64162;53.508;10.476;2023-11-21T10:09:51;101387.81;;;9.13;68.13
75585;BME280;64162;53.508;10.476;2023-11-21T10:12:18;101404.97;;;9.23;67.56
75585;BME280;64162;53.508;10.476;2023-11-21T10:14:48;101405.84;;;9.43;66.38
75585;BME280;64162;53.508;10.476;2023-11-21T10:17:17;101395.91;;;8.98;67.87
75585;BME280;64162;53.508;10.476;2023-11-21T10:19:48;101397.84;;;9.16;67.17
75585;BME280;64162;53.508;10.476;2023-11-21T10:22:15;101398.09;;;9.53;68.01
75585;BME280;64162;53.508;10.476;2023-11-21T10:24:42;101391.31;;;9.61;66.82
75585;BME280;64162;53.508;10.476;2023-11-21T10:27:10;101402.88;;;9.08;69.81
75585;BME280;64162;53.508;10.476;2023-11-21T10:29:36;101402.31;;;9.44;67.85
75585;BME280;64162;53.508;10.476;2023-11-21T10:32:03;101418.63;;;9.35;67.78
75585;BME280;64162;53.508;10.476;2023-11-21T10:34:32;101402.13;;;8.96;66.84
75585;BME280;64162;53.508;10.476;2023-11-21T10:37:11;101404.38;;;9.50;66.96
75585;BME280;64162;53.508;10.476;2023-11-21T10:39:39;101400.38;;;9.46;67.15
75585;BME280;64162;53.508;10.476;2023-11-21T10:42:08;101411.13;;;9.41;66.69
75585;BME280;64162;53.508;10.476;2023-11-21T10:44:35;101414.53;;;9.42;67.09
75585;BME280;64162;53.508;10.476;2023-11-21T10:47:02;101395.44;;;8.84;66.55
75585;BME280;64162;53.508;10.476;2023-11-21T10:49:29;101413.28;;;8.66;66.65
75585;BME280;64162;53.508;10.476;2023-11-21T10:51:56;101423.19;;;9.22;65.75
75585;BME280;64162;53.508;10.476;2023-11-21T10:54:24;101422.22;;;9.82;66.48
75585;BME280;64162;53.508;10.476;2023-11-21T10:56:59;101431.88;;;9.21;66.19
75585;BME280;64162;53.508;10.476;2023-11-21T10:59:30;101433.00;;;9.28;65.73
75585;BME280;64162;53.508;10.476;2023-11-21T11:01:58;101428.19;;;8.83;67.38
75585;BME280;64162;53.508;10.476;2023-11-21T11:04:27;101426.81;;;9.50;65.30
75585;BME280;64162;53.508;10.476;2023-11-21T11:06:56;101419.06;;;9.10;65.60
75585;BME280;64162;53.508;10.476;2023-11-21T11:09:24;101425.94;;;9.30;65.27
75585;BME280;64162;53.508;10.476;2023-11-21T11:11:51;101427.53;;;9.21;66.17
75585;BME280;64162;53.508;10.476;2023-11-21T11:14:19;101425.44;;;9.05;65.83
75585;BME280;64162;53.508;10.476;2023-11-21T11:16:46;101432.47;;;9.34;67.26
75585;BME280;64162;53.508;10.476;2023-11-21T11:19:13;101441.97;;;8.93;65.18
75585;BME280;64162;53.508;10.476;2023-11-21T11:21:45;101439.34;;;8.63;65.74
75585;BME280;64162;53.508;10.476;2023-11-21T11:24:33;101457.91;;;8.98;65.45
75585;BME280;64162;53.508;10.476;2023-11-21T11:27:09;101450.19;;;9.38;65.99
75585;BME280;64162;53.508;10.476;2023-11-21T11:32:12;101462.63;;;9.24;65.98
75585;BME280;64162;53.508;10.476;2023-11-21T11:35:07;101449.50;;;9.96;70.01
75585;BME280;64162;53.508;10.476;2023-11-21T11:37:37;101463.84;;;9.50;64.94
75585;BME280;64162;53.508;10.476;2023-11-21T11:40:06;101466.56;;;9.18;65.65
75585;BME280;64162;53.508;10.476;2023-11-21T11:42:33;101453.13;;;9.24;64.93
75585;BME280;64162;53.508;10.476;2023-11-21T11:44:59;101450.94;;;9.20;64.53
75585;BME280;64162;53.508;10.476;2023-11-21T11:47:28;101461.34;;;9.39;64.10
75585;BME280;64162;53.508;10.476;2023-11-21T11:50:09;101474.06;;;9.31;65.00
75585;BME280;64162;53.508;10.476;2023-11-21T11:52:47;101460.38;;;9.00;66.13
75585;BME280;64162;53.508;10.476;2023-11-21T11:55:16;101475.25;;;9.57;64.53
75585;BME280;64162;53.508;10.476;2023-11-21T11:57:46;101481.56;;;9.64;64.07
75585;BME280;64162;53.508;10.476;2023-11-21T12:00:48;101478.13;;;9.54;64.94
75585;BME280;64162;53.508;10.476;2023-11-21T12:03:08;101473.75;;;9.15;64.30
75585;BME280;64162;53.508;10.476;2023-11-21T12:05:36;101474.16;;;9.50;66.01
75585;BME280;64162;53.508;10.476;2023-11-21T12:08:06;101477.91;;;9.06;64.05
75585;BME280;64162;53.508;10.476;2023-11-21T12:10:35;101486.44;;;9.27;67.43
75585;BME280;64162;53.508;10.476;2023-11-21T12:13:06;101473.03;;;8.82;65.25
75585;BME280;64162;53.508;10.476;2023-11-21T12:15:34;101482.22;;;8.75;64.94
75585;BME280;64162;53.508;10.476;2023-11-21T12:18:01;101489.28;;;8.73;65.21
75585;BME280;64162;53.508;10.476;2023-11-21T12:20:28;101500.78;;;9.11;65.13
75585;BME280;64162;53.508;10.476;2023-11-21T12:22:57;101496.09;;;8.74;64.78
75585;BME280;64162;53.508;10.476;2023-11-21T12:25:29;101492.50;;;8.86;64.52
75585;BME280;64162;53.508;10.476;2023-11-21T12:27:59;101493.63;;;8.93;64.92
75585;BME280;64162;53.508;10.476;2023-11-21T12:30:27;101501.81;;;8.98;64.69
75585;BME280;64162;53.508;10.476;2023-11-21T12:33:02;101498.97;;;9.01;65.13
75585;BME280;64162;53.508;10.476;2023-11-21T12:35:31;101506.72;;;9.32;64.72
75585;BME280;64162;53.508;10.476;2023-11-21T12:38:02;101506.97;;;9.19;64.87
75585;BME280;64162;53.508;10.476;2023-11-21T12:40:31;101521.28;;;9.63;66.54
75585;BME280;64162;53.508;10.476;2023-11-21T12:42:59;101505.63;;;9.55;66.73
75585;BME280;64162;53.508;10.476;2023-11-21T12:45:28;101521.22;;;9.44;63.63
75585;BME280;64162;53.508;10.476;2023-11-21T12:47:57;101511.53;;;9.16;64.26
75585;BME280;64162;53.508;10.476;2023-11-21T12:50:28;101521.38;;;9.22;64.34
75585;BME280;64162;53.508;10.476;2023-11-21T12:53:13;101537.47;;;10.15;63.61
75585;BME280;64162;53.508;10.476;2023-11-21T12:55:43;101542.75;;;9.54;65.43